Time;durP1;ratioP1;P1;durP2;ratioP2;P2;SDS_P1;SDS_P2;PMS_P1;PMS_P2;Temp;Humidity;BMP_temperature;BMP_pressure;BME280_temperature;BME280_humidity;BME280_pressure;Samples;Min_cycle;Max_cycle;Signal;HPM_P1;HPM_P2
2023/09/20 00:01:53;;;;;;;3.53;1.87;;;;;;;21.58;46.97;99149.59;5056404;28;20578;-87
2023/09/20 00:04:22;;;;;;;3.77;1.53;;;;;;;21.61;45.87;99149.28;5038802;28;20202;-86
2023/09/20 00:06:48;;;;;;;3.00;1.40;;;;;;;21.57;45.16;99153.22;5056823;28;20186;-87
2023/09/20 00:09:15;;;;;;;5.00;1.83;;;;;;;21.50;44.96;99152.16;5070214;28;20189;-87
2023/09/20 00:11:46;;;;;;;3.73;1.57;;;;;;;21.49;44.76;99150.50;5076708;28;20234;-87
2023/09/20 00:14:12;;;;;;;3.70;1.67;;;;;;;21.47;44.44;99163.13;5058291;28;20613;-86
2023/09/20 00:16:37;;;;;;;3.03;1.43;;;;;;;21.40;44.60;99160.22;5076359;28;20169;-86
2023/09/20 00:19:04;;;;;;;3.53;1.60;;;;;;;21.31;44.32;99163.75;5075796;28;20173;-86
2023/09/20 00:21:31;;;;;;;4.43;1.67;;;;;;;21.20;44.30;99166.66;5075950;28;20195;-86
2023/09/20 00:23:56;;;;;;;8.53;1.70;;;;;;;21.13;43.57;99163.72;5075939;28;20177;-86
2023/09/20 00:26:23;;;;;;;2.90;1.50;;;;;;;21.05;44.18;99163.56;5075995;28;20178;-86
2023/09/20 00:28:49;;;;;;;2.57;1.47;;;;;;;21.04;43.95;99166.38;5058241;28;20262;-87
2023/09/20 00:31:16;;;;;;;4.03;1.63;;;;;;;21.13;44.15;99169.03;5075779;28;20256;-87
2023/09/20 00:33:42;;;;;;;4.50;1.83;;;;;;;21.13;44.84;99166.38;5075566;28;20249;-86
2023/09/20 00:36:08;;;;;;;4.87;2.10;;;;;;;21.15;45.46;99169.72;5075538;28;20274;-87
2023/09/20 00:38:34;;;;;;;7.43;1.90;;;;;;;21.21;45.98;99168.31;5058017;28;20185;-87
2023/09/20 00:41:07;;;;;;;4.13;1.90;;;;;;;21.27;46.82;99163.25;5075574;28;20642;-86
2023/09/20 00:43:32;;;;;;;7.30;2.20;;;;;;;21.30;46.69;99146.09;5057782;28;20638;-86
2023/09/20 00:46:01;;;;;;;5.50;2.20;;;;;;;21.33;47.01;99141.28;5075419;28;20200;-86
2023/09/20 00:48:31;;;;;;;4.43;1.80;;;;;;;21.32;47.18;99133.47;5057710;28;20238;-86
2023/09/20 00:50:57;;;;;;;4.37;2.30;;;;;;;21.29;47.22;99144.41;5075719;28;20185;-86
2023/09/20 00:53:23;;;;;;;3.53;1.83;;;;;;;21.29;47.13;99145.25;5057523;28;20553;-86
2023/09/20 00:55:50;;;;;;;4.67;2.10;;;;;;;21.32;47.31;99139.63;5073948;28;20173;-87
2023/09/20 00:58:19;;;;;;;4.23;2.10;;;;;;;21.25;47.29;99135.84;5057720;28;20230;-86
2023/09/20 01:00:46;;;;;;;5.90;1.90;;;;;;;21.17;47.98;99133.09;5074184;28;20262;-86
2023/09/20 01:03:17;;;;;;;4.87;2.10;;;;;;;21.22;48.02;99130.84;5057544;28;20181;-86
2023/09/20 01:05:48;;;;;;;4.13;2.10;;;;;;;21.32;48.07;99112.97;5074327;28;20264;-86
2023/09/20 01:08:14;;;;;;;4.33;2.00;;;;;;;21.39;48.12;99118.53;5057554;28;20211;-86
2023/09/20 01:10:41;;;;;;;4.77;2.13;;;;;;;21.42;48.17;99111.09;5075310;28;20185;-87
2023/09/20 01:13:09;;;;;;;4.90;2.37;;;;;;;21.44;48.12;99111.78;5056978;28;20676;-87
2023/09/20 01:15:36;;;;;;;5.03;2.00;;;;;;;21.37;48.64;99116.03;5075016;28;20187;-86
2023/09/20 01:18:04;;;;;;;4.73;1.67;;;;;;;21.28;47.55;99110.72;5075141;28;20196;-86
2023/09/20 01:20:33;;;;;;;4.30;2.30;;;;;;;21.21;47.90;99121.16;5074648;28;20173;-87
2023/09/20 01:23:00;;;;;;;4.93;2.17;;;;;;;21.20;48.46;99124.00;5074854;28;20298;-86
2023/09/20 01:25:29;;;;;;;7.47;2.83;;;;;;;21.21;49.34;99129.16;5074789;28;20169;-86
2023/09/20 01:27:58;;;;;;;5.27;2.63;;;;;;;21.23;50.49;99113.84;5074645;28;20188;-86
2023/09/20 01:30:29;;;;;;;7.10;3.67;;;;;;;21.26;50.81;99129.56;5074659;28;20273;-87
2023/09/20 01:32:57;;;;;;;5.83;2.73;;;;;;;21.35;51.20;99122.50;5074853;28;20654;-86
2023/09/20 01:35:26;;;;;;;6.33;3.00;;;;;;;21.39;51.50;99107.88;5074456;28;20264;-86
2023/09/20 01:37:53;;;;;;;4.20;2.40;;;;;;;21.44;51.60;99090.44;5074555;28;20256;-86
2023/09/20 01:40:23;;;;;;;5.63;3.07;;;;;;;21.50;51.82;99072.16;5074356;28;20234;-86
2023/09/20 01:42:50;;;;;;;5.27;2.87;;;;;;;21.27;52.80;99072.59;5074736;28;20195;-86
2023/09/20 01:45:18;;;;;;;8.03;2.80;;;;;;;21.16;53.11;99070.13;5073290;28;20305;-86
2023/09/20 01:47:55;;;;;;;4.37;2.13;;;;;;;21.08;53.16;99062.03;5074385;28;20169;-86
2023/09/20 01:50:23;;;;;;;7.80;2.47;;;;;;;21.07;53.24;99065.66;5039992;28;20203;-87
2023/09/20 01:52:50;;;;;;;6.57;2.13;;;;;;;21.21;52.65;99072.31;5074102;28;20610;-86
2023/09/20 01:55:20;;;;;;;7.23;2.47;;;;;;;21.31;52.00;99068.63;5074246;28;20169;-86
2023/09/20 01:57:53;;;;;;;6.07;2.70;;;;;;;21.28;51.26;99054.75;5074182;28;20642;-86
2023/09/20 02:00:25;;;;;;;4.10;2.00;;;;;;;21.18;51.62;99046.81;5056581;28;20532;-86
2023/09/20 02:02:55;;;;;;;6.23;2.50;;;;;;;20.95;51.84;99034.00;5074281;28;20176;-86
2023/09/20 02:05:26;;;;;;;4.47;1.83;;;;;;;20.74;51.61;99035.09;5056347;28;20181;-86
2023/09/20 02:07:55;;;;;;;4.30;2.17;;;;;;;20.73;51.17;99029.91;5073967;28;20532;-85
2023/09/20 02:10:21;;;;;;;4.10;2.03;;;;;;;20.75;50.78;99051.94;5074009;28;20185;-86
2023/09/20 02:12:54;;;;;;;6.47;2.17;;;;;;;20.80;50.73;99062.97;5073509;28;20196;-86
2023/09/20 02:15:23;;;;;;;9.93;2.47;;;;;;;20.75;51.37;99074.06;5056028;28;20486;-86
2023/09/20 02:17:50;;;;;;;4.27;2.20;;;;;;;20.81;51.09;99069.97;5056122;28;20173;-86
2023/09/20 02:20:22;;;;;;;3.83;2.13;;;;;;;20.83;50.58;99076.00;5073800;28;20177;-86
2023/09/20 02:22:50;;;;;;;3.67;2.00;;;;;;;20.70;50.52;99078.97;5074067;28;20180;-86
2023/09/20 02:25:20;;;;;;;3.77;1.80;;;;;;;20.71;50.33;99075.34;5073929;28;20180;-86
2023/09/20 02:27:47;;;;;;;8.50;2.20;;;;;;;20.79;50.12;99074.59;5066865;28;20177;-86
2023/09/20 02:30:16;;;;;;;6.30;2.20;;;;;;;20.76;49.68;99075.75;5053490;28;20186;-86
2023/09/20 02:32:43;;;;;;;4.57;1.97;;;;;;;20.73;49.79;99093.81;5060487;28;20181;-86
2023/09/20 02:35:09;;;;;;;6.17;2.70;;;;;;;20.80;50.01;99092.28;5055810;28;20246;-86
2023/09/20 02:37:36;;;;;;;5.40;2.17;;;;;;;20.85;49.86;99095.34;5073245;28;20234;-86
2023/09/20 02:40:12;;;;;;;4.73;2.07;;;;;;;20.91;49.78;99091.25;5073414;28;20166;-86
2023/09/20 02:42:43;;;;;;;5.33;2.40;;;;;;;20.81;50.32;99092.13;5073689;28;20602;-86
2023/09/20 02:45:13;;;;;;;5.10;2.57;;;;;;;20.83;50.37;99086.66;5073137;28;20181;-86
2023/09/20 02:47:43;;;;;;;7.07;2.50;;;;;;;20.89;49.88;99098.53;5056406;28;20161;-87
2023/09/20 02:50:12;;;;;;;6.23;2.43;;;;;;;20.95;49.68;99103.28;5055341;28;20235;-86
2023/09/20 02:52:40;;;;;;;4.47;2.20;;;;;;;20.87;50.04;99098.69;5073134;28;20246;-86
2023/09/20 02:55:12;;;;;;;5.53;2.03;;;;;;;20.79;50.65;99101.25;5072933;28;20173;-86
2023/09/20 02:57:44;;;;;;;4.47;2.20;;;;;;;20.87;49.93;99093.38;5073548;28;20215;-86
2023/09/20 03:00:21;;;;;;;4.30;2.17;;;;;;;20.86;49.60;99096.19;5073457;28;20164;-86
2023/09/20 03:02:51;;;;;;;5.07;2.20;;;;;;;20.80;49.64;99095.78;5072955;28;20192;-86
2023/09/20 03:05:25;;;;;;;7.70;2.70;;;;;;;20.81;49.85;99099.28;5055385;28;20176;-86
2023/09/20 03:07:53;;;;;;;7.97;2.23;;;;;;;20.78;49.71;99096.88;5055253;28;20165;-86
2023/09/20 03:10:23;;;;;;;4.43;2.40;;;;;;;20.73;49.78;99089.34;5072967;28;20185;-86
2023/09/20 03:12:54;;;;;;;3.83;1.90;;;;;;;20.71;50.12;99075.34;5073033;28;20204;-86
2023/09/20 03:15:21;;;;;;;4.30;2.70;;;;;;;20.65;50.86;99078.56;5055165;28;20173;-86
2023/09/20 03:17:49;;;;;;;9.13;2.80;;;;;;;20.67;50.38;99081.13;5072892;28;20634;-85
2023/09/20 03:20:22;;;;;;;4.13;2.17;;;;;;;20.63;50.66;99082.38;5072706;28;20238;-86
2023/09/20 03:22:52;;;;;;;3.90;2.03;;;;;;;20.61;51.09;99090.53;5073212;28;20207;-86
2023/09/20 03:25:21;;;;;;;5.47;2.10;;;;;;;20.69;50.54;99084.47;5055171;28;20205;-86
2023/09/20 03:27:49;;;;;;;4.43;2.20;;;;;;;20.80;50.49;99085.13;5055096;28;20555;-86
2023/09/20 03:30:17;;;;;;;5.87;2.20;;;;;;;20.72;50.71;99079.69;5073354;28;20192;-86
2023/09/20 03:32:44;;;;;;;4.30;2.20;;;;;;;20.64;51.45;99078.72;5055196;28;20177;-86
2023/09/20 03:35:12;;;;;;;4.10;1.90;;;;;;;20.58;51.84;99082.81;5055286;28;20182;-86
2023/09/20 03:37:40;;;;;;;3.40;2.00;;;;;;;20.58;51.67;99074.81;5053107;28;20181;-86
2023/09/20 03:40:10;;;;;;;4.50;2.37;;;;;;;20.58;51.63;99073.97;5052829;28;20170;-86
2023/09/20 03:42:39;;;;;;;4.83;2.40;;;;;;;20.59;51.43;99071.19;5068491;28;20177;-86
2023/09/20 03:45:09;;;;;;;5.60;2.00;;;;;;;20.56;51.45;99078.63;5052687;28;20177;-86
2023/09/20 03:47:36;;;;;;;4.90;2.13;;;;;;;20.58;51.64;99087.28;5052958;28;20173;-87
2023/09/20 03:50:03;;;;;;;4.80;2.10;;;;;;;20.57;51.86;99085.63;5039628;28;20238;-86
2023/09/20 03:52:30;;;;;;;3.17;1.80;;;;;;;20.58;51.69;99089.97;5054982;28;20181;-86
2023/09/20 03:54:57;;;;;;;4.53;2.03;;;;;;;20.65;51.37;99091.91;5052800;28;20266;-86
2023/09/20 03:57:25;;;;;;;4.33;1.90;;;;;;;20.71;51.28;99093.97;5053007;28;20176;-87
2023/09/20 03:59:57;;;;;;;6.67;2.87;;;;;;;20.72;51.41;99094.84;5054017;28;20170;-86
2023/09/20 04:02:24;;;;;;;3.77;2.00;;;;;;;20.59;51.42;99092.50;5054972;28;20631;-86
2023/09/20 04:04:51;;;;;;;3.37;1.60;;;;;;;20.56;51.78;99098.09;5072485;28;20221;-86
2023/09/20 04:07:18;;;;;;;3.60;1.93;;;;;;;20.55;51.82;99090.25;5072564;28;20184;-86
2023/09/20 04:09:45;;;;;;;4.20;1.90;;;;;;;20.52;51.76;99093.22;5075081;28;20208;-86
2023/09/20 04:12:12;;;;;;;5.90;1.97;;;;;;;20.49;51.57;99082.84;5076104;28;20534;-86
2023/09/20 04:14:38;;;;;;;3.20;1.80;;;;;;;20.48;51.79;99081.16;5076180;28;20192;-86
2023/09/20 04:17:05;;;;;;;4.03;2.40;;;;;;;20.46;51.87;99085.78;5058566;28;20181;-86
2023/09/20 04:19:31;;;;;;;5.87;2.43;;;;;;;20.47;51.83;99092.78;5063505;28;20589;-87
2023/09/20 04:21:58;;;;;;;6.93;2.60;;;;;;;20.50;52.28;99098.66;5071586;28;20263;-87
2023/09/20 04:24:23;;;;;;;5.13;2.30;;;;;;;20.49;52.68;99102.31;5076000;28;20181;-86
2023/09/20 04:26:50;;;;;;;9.60;2.43;;;;;;;20.58;52.35;99098.78;5058172;28;20177;-86
2023/09/20 04:29:17;;;;;;;4.67;2.27;;;;;;;20.66;52.13;99103.41;5076044;28;20203;-86
2023/09/20 04:31:45;;;;;;;6.80;2.33;;;;;;;20.66;52.01;99109.56;5075955;28;20177;-86
2023/09/20 04:34:11;;;;;;;3.90;2.50;;;;;;;20.64;51.83;99105.38;5075577;28;20208;-86
2023/09/20 04:36:37;;;;;;;4.57;2.50;;;;;;;20.63;52.11;99106.34;5058490;28;20225;-86
2023/09/20 04:39:06;;;;;;;5.43;2.47;;;;;;;20.67;52.04;99113.06;5076315;28;20184;-86
2023/09/20 04:41:34;;;;;;;5.97;2.30;;;;;;;20.74;51.46;99109.69;5057957;28;20551;-86
2023/09/20 04:44:00;;;;;;;7.27;2.13;;;;;;;20.79;50.97;99104.75;5057971;28;20212;-86
2023/09/20 04:46:27;;;;;;;3.30;1.67;;;;;;;20.86;50.72;99104.19;5075784;28;20209;-87
2023/09/20 04:48:52;;;;;;;6.00;2.73;;;;;;;20.94;50.39;99106.97;5075700;28;20177;-86
2023/09/20 04:51:18;;;;;;;5.73;2.70;;;;;;;21.01;50.16;99116.88;5057090;28;20630;-87
2023/09/20 04:53:45;;;;;;;5.70;2.57;;;;;;;21.01;50.74;99119.56;5075444;28;20169;-87
2023/09/20 04:56:12;;;;;;;8.43;2.47;;;;;;;21.06;50.60;99114.66;5057559;28;20184;-86
2023/09/20 04:58:39;;;;;;;5.90;2.00;;;;;;;21.15;50.15;99115.56;5075448;28;20176;-87
2023/09/20 05:01:09;;;;;;;7.07;2.37;;;;;;;21.20;49.91;99108.81;5075988;28;20180;-86
2023/09/20 05:03:35;;;;;;;4.20;2.00;;;;;;;21.27;49.91;99109.06;5075482;28;20310;-86
2023/09/20 05:06:02;;;;;;;4.87;2.20;;;;;;;21.29;50.06;99112.41;5057654;28;20264;-87
2023/09/20 05:08:28;;;;;;;4.30;2.10;;;;;;;21.39;49.69;99113.19;5075845;28;20208;-87
2023/09/20 05:10:55;;;;;;;3.83;1.67;;;;;;;21.46;49.85;99119.63;5074984;28;20735;-87
2023/09/20 05:13:22;;;;;;;5.30;2.27;;;;;;;21.44;50.04;99124.25;5075725;28;20502;-87
2023/09/20 05:15:50;;;;;;;4.87;2.00;;;;;;;21.43;50.12;99126.06;5075138;28;20314;-87
2023/09/20 05:18:16;;;;;;;6.30;2.40;;;;;;;21.54;49.91;99126.88;5074992;28;20181;-86
2023/09/20 05:20:47;;;;;;;7.23;2.20;;;;;;;21.69;49.39;99122.72;5075065;28;20631;-87
2023/09/20 05:23:12;;;;;;;6.30;2.07;;;;;;;21.89;48.69;99118.94;5074903;28;20216;-86
2023/09/20 05:25:39;;;;;;;4.80;1.90;;;;;;;21.95;48.40;99127.19;5074822;28;20561;-87
2023/09/20 05:28:05;;;;;;;5.33;2.10;;;;;;;22.03;48.33;99119.25;5074727;28;20260;-86
2023/09/20 05:30:32;;;;;;;8.30;2.37;;;;;;;22.09;48.22;99123.13;5074985;28;20291;-86
2023/09/20 05:32:59;;;;;;;3.87;2.10;;;;;;;22.13;48.49;99124.50;5075156;28;20169;-87
2023/09/20 05:35:26;;;;;;;6.07;2.10;;;;;;;22.15;48.69;99122.50;5063833;28;20178;-87
2023/09/20 05:37:52;;;;;;;5.67;2.63;;;;;;;22.26;48.43;99118.75;5054720;28;20189;-87
2023/09/20 05:40:19;;;;;;;4.13;2.00;;;;;;;22.32;48.12;99129.69;5067048;28;20177;-86
2023/09/20 05:42:50;;;;;;;5.80;2.40;;;;;;;22.44;48.19;99120.41;5074416;28;20184;-87
2023/09/20 05:45:20;;;;;;;4.10;1.97;;;;;;;22.42;48.36;99124.22;5074307;28;20204;-87
2023/09/20 05:47:46;;;;;;;7.07;2.60;;;;;;;22.62;47.63;99121.22;5056909;28;20704;-87
2023/09/20 05:50:14;;;;;;;4.80;2.33;;;;;;;22.78;46.83;99122.31;5074256;28;20196;-87
2023/09/20 05:52:43;;;;;;;4.83;2.50;;;;;;;22.92;46.60;99124.44;5074965;28;20177;-87
2023/09/20 05:55:14;;;;;;;6.63;2.40;;;;;;;23.14;46.43;99132.72;5074255;28;20244;-87
2023/09/20 05:57:41;;;;;;;4.20;2.23;;;;;;;23.46;45.87;99131.19;5074375;28;20370;-87
2023/09/20 06:00:18;;;;;;;7.53;2.60;;;;;;;23.89;45.24;99131.00;5056641;28;20177;-87
2023/09/20 06:02:45;;;;;;;5.00;2.43;;;;;;;24.34;44.67;99142.09;5074546;28;20240;-85
2023/09/20 06:05:11;;;;;;;4.10;1.97;;;;;;;24.96;43.95;99145.91;5073923;28;20181;-86
2023/09/20 06:07:40;;;;;;;5.43;2.60;;;;;;;25.45;42.68;99145.72;5074440;28;20246;-87
2023/09/20 06:10:09;;;;;;;5.03;2.40;;;;;;;25.94;41.08;99141.78;5056194;28;20188;-87
2023/09/20 06:12:35;;;;;;;5.47;2.33;;;;;;;26.67;40.44;99138.56;5074101;28;20177;-87
2023/09/20 06:15:00;;;;;;;6.87;2.30;;;;;;;27.39;38.32;99148.59;5073901;28;20181;-87
2023/09/20 06:17:32;;;;;;;6.20;1.93;;;;;;;28.15;37.73;99140.97;5073960;28;20362;-87
2023/09/20 06:20:01;;;;;;;5.47;2.23;;;;;;;28.97;36.26;99144.81;5056308;28;20184;-87
2023/09/20 06:22:28;;;;;;;7.00;2.37;;;;;;;29.40;35.12;99149.06;5073598;28;20200;-87
2023/09/20 06:24:58;;;;;;;8.38;2.97;;;;;;;29.83;34.27;99142.41;5056056;28;20261;-87
2023/09/20 06:27:25;;;;;;;8.80;2.38;;;;;;;30.34;34.37;99147.28;5073636;28;20536;-87
2023/09/20 06:29:52;;;;;;;9.15;2.40;;;;;;;31.08;33.49;99147.13;5073704;28;20203;-87
2023/09/20 06:32:20;;;;;;;10.52;1.98;;;;;;;31.74;32.65;99140.44;5055957;28;20196;-88
2023/09/20 06:34:46;;;;;;;6.60;2.25;;;;;;;32.35;31.02;99148.03;5055817;28;20315;-87
2023/09/20 06:37:13;;;;;;;9.50;2.15;;;;;;;32.56;31.64;99145.81;5073963;28;20220;-87
2023/09/20 06:39:43;;;;;;;6.82;2.55;;;;;;;32.96;30.17;99146.31;5073186;28;20258;-87
2023/09/20 06:42:11;;;;;;;5.25;2.25;;;;;;;33.48;30.32;99144.09;5074081;28;20176;-89
2023/09/20 06:44:40;;;;;;;5.30;2.58;;;;;;;33.99;29.19;99145.31;5056347;28;20314;-89
2023/09/20 06:47:08;;;;;;;6.50;2.63;;;;;;;33.58;29.51;99149.84;5073408;28;20263;-89
2023/09/20 06:49:38;;;;;;;5.38;1.80;;;;;;;33.32;30.79;99151.78;5073254;28;20697;-89
2023/09/20 06:52:04;;;;;;;6.93;2.35;;;;;;;33.91;31.09;99150.28;5055500;28;20259;-89
2023/09/20 06:54:30;;;;;;;8.77;2.10;;;;;;;34.50;29.10;99142.06;5073059;28;20259;-89
2023/09/20 06:57:02;;;;;;;10.43;2.60;;;;;;;35.00;28.67;99144.38;5073341;28;20173;-89
2023/09/20 06:59:32;;;;;;;5.38;2.13;;;;;;;35.11;27.87;99138.97;5073877;28;20211;-89
2023/09/20 07:02:02;;;;;;;3.97;1.85;;;;;;;35.14;28.16;99145.84;5073304;28;20181;-89
2023/09/20 07:04:31;;;;;;;5.22;2.17;;;;;;;35.21;28.01;99146.53;5073277;28;20173;-89
2023/09/20 07:06:58;;;;;;;7.70;1.80;;;;;;;35.29;28.37;99148.88;5073249;28;20233;-89
2023/09/20 07:09:24;;;;;;;7.55;2.33;;;;;;;35.34;27.85;99153.63;5055209;28;20201;-89
2023/09/20 07:11:53;;;;;;;3.60;1.98;;;;;;;35.22;27.95;99152.81;5073771;28;20172;-90
2023/09/20 07:14:20;;;;;;;3.72;1.70;;;;;;;35.14;28.41;99159.47;5073262;28;20272;-90
2023/09/20 07:16:51;;;;;;;5.70;2.00;;;;;;;35.17;28.46;99150.78;5072983;28;20176;-89
2023/09/20 07:19:18;;;;;;;4.47;2.33;;;;;;;35.25;27.88;99158.59;5073456;28;20198;-90
2023/09/20 07:21:45;;;;;;;7.18;2.55;;;;;;;35.27;27.46;99158.38;5073250;28;20187;-90
2023/09/20 07:24:12;;;;;;;4.85;2.08;;;;;;;35.20;28.22;99158.47;5073380;28;20181;-90
2023/09/20 07:26:45;;;;;;;3.53;1.85;;;;;;;35.19;27.68;99165.03;5073043;28;20591;-90
2023/09/20 07:29:15;;;;;;;4.47;1.90;;;;;;;35.15;28.41;99161.09;5055141;28;20185;-90
2023/09/20 07:31:42;;;;;;;4.03;1.88;;;;;;;35.16;28.05;99165.50;5055410;28;20238;-90
2023/09/20 07:34:13;;;;;;;5.50;2.58;;;;;;;35.22;28.40;99156.38;5072733;28;20264;-89
2023/09/20 07:36:49;;;;;;;7.25;2.30;;;;;;;35.06;28.47;99162.53;5073318;28;20231;-90
2023/09/20 07:39:20;;;;;;;5.75;2.10;;;;;;;35.00;27.70;99155.28;5073098;28;20257;-89
2023/09/20 07:41:50;;;;;;;3.92;2.10;;;;;;;34.84;28.50;99158.69;5072952;28;20176;-89
2023/09/20 07:44:30;;;;;;;5.32;1.85;;;;;;;34.73;27.95;99154.06;5074545;28;20169;-90
2023/09/20 07:46:57;;;;;;;5.15;2.08;;;;;;;34.64;28.74;99150.88;5076943;28;20161;-89
2023/09/20 07:49:24;;;;;;;5.68;2.47;;;;;;;34.53;29.10;99157.94;5076653;28;20565;-89
2023/09/20 07:51:49;;;;;;;13.88;2.00;;;;;;;34.47;29.72;99161.59;5076788;28;20238;-89
2023/09/20 07:54:17;;;;;;;3.53;2.20;;;;;;;34.47;29.14;99169.75;5076746;28;20177;-90
2023/09/20 07:56:49;;;;;;;4.22;2.03;;;;;;;34.41;29.95;99173.41;5076355;28;20192;-90
2023/09/20 07:59:17;;;;;;;4.07;1.85;;;;;;;34.26;29.24;99169.44;5077247;28;20162;-91
2023/09/20 08:01:44;;;;;;;5.70;2.10;;;;;;;34.20;28.92;99173.94;5076377;28;20638;-90
2023/09/20 08:04:11;;;;;;;5.63;2.22;;;;;;;34.20;29.36;99171.19;5076471;28;20192;-89
2023/09/20 08:06:40;;;;;;;5.82;2.00;;;;;;;34.21;29.87;99164.72;5076540;28;20166;-89
2023/09/20 08:09:06;;;;;;;3.95;2.17;;;;;;;34.31;29.22;99169.59;5066842;28;20216;-90
2023/09/20 08:11:33;;;;;;;3.30;1.92;;;;;;;34.29;29.82;99169.81;5056194;28;20178;-89
2023/09/20 08:14:06;;;;;;;4.80;1.75;;;;;;;34.22;29.61;99174.56;5075593;28;20234;-90
2023/09/20 08:16:32;;;;;;;4.22;2.28;;;;;;;34.16;29.91;99174.63;5058705;28;20629;-89
2023/09/20 08:21:58;;;;;;;6.55;1.90;;;;;;;34.27;29.06;99171.97;5042782;28;20770;-89
2023/09/20 09:00:34;;;;;;;5.75;2.33;;;;;;;34.37;28.80;99146.88;5076056;28;20226;-90
2023/09/20 09:03:03;;;;;;;3.30;1.65;;;;;;;34.43;28.98;99137.78;5075182;28;20264;-88
2023/09/20 09:05:30;;;;;;;7.07;2.20;;;;;;;34.56;28.50;99146.63;5057688;28;20275;-89
2023/09/20 09:08:02;;;;;;;8.52;2.90;;;;;;;34.64;27.98;99141.88;5075338;28;20181;-89
2023/09/20 09:10:29;;;;;;;6.63;2.40;;;;;;;34.62;28.34;99136.66;5057439;28;20278;-89
2023/09/20 09:12:56;;;;;;;6.25;1.85;;;;;;;34.63;28.44;99134.75;5075250;28;20184;-90
2023/09/20 09:15:24;;;;;;;3.03;1.83;;;;;;;34.74;27.71;99133.94;5038427;28;20547;-90
2023/09/20 09:17:50;;;;;;;4.88;1.98;;;;;;;34.71;27.83;99134.41;5055107;28;20177;-90
2023/09/20 09:20:21;;;;;;;5.03;2.30;;;;;;;34.66;27.94;99131.56;5037510;28;20181;-89
2023/09/20 09:22:47;;;;;;;4.72;2.30;;;;;;;34.49;28.02;99129.50;5052580;28;20188;-90
2023/09/20 09:25:18;;;;;;;4.47;1.65;;;;;;;34.52;27.77;99118.16;5074996;28;20215;-89
2023/09/20 09:27:45;;;;;;;4.72;1.70;;;;;;;34.64;28.14;99122.81;5075172;28;20170;-89
2023/09/20 09:30:19;;;;;;;4.57;1.83;;;;;;;34.62;28.60;99109.41;5074871;28;20231;-90
2023/09/20 09:32:47;;;;;;;5.85;1.90;;;;;;;34.76;29.24;99112.75;5075279;28;20185;-89
2023/09/20 09:35:21;;;;;;;5.00;2.03;;;;;;;35.06;28.09;99110.78;5074757;28;20661;-90
2023/09/20 09:37:48;;;;;;;4.63;1.95;;;;;;;35.36;27.63;99105.13;5074616;28;20660;-90
2023/09/20 09:40:15;;;;;;;8.55;2.03;;;;;;;35.49;26.59;99099.41;5057384;28;20655;-89
2023/09/20 09:42:44;;;;;;;4.88;1.95;;;;;;;35.47;27.35;99099.66;5074445;28;20267;-89
2023/09/20 09:45:10;;;;;;;5.30;1.83;;;;;;;35.64;26.61;99092.38;5056703;28;20214;-90
2023/09/20 09:47:37;;;;;;;5.55;1.70;;;;;;;35.16;26.89;99094.63;5074609;28;20179;-89
2023/09/20 09:50:06;;;;;;;3.08;1.65;;;;;;;35.12;27.21;99093.44;5074302;28;20200;-89
2023/09/20 09:52:34;;;;;;;3.97;1.67;;;;;;;34.77;27.65;99089.91;5074798;28;20189;-90
2023/09/20 09:55:01;;;;;;;4.00;1.40;;;;;;;34.91;27.25;99088.56;5056987;28;20178;-89
2023/09/20 09:57:27;;;;;;;10.05;1.67;;;;;;;35.04;27.96;99080.97;5056612;28;20189;-90
2023/09/20 09:59:53;;;;;;;3.75;1.52;;;;;;;35.19;27.63;99077.81;5070091;28;20177;-90
2023/09/20 10:02:20;;;;;;;4.05;1.65;;;;;;;35.30;27.02;99079.66;5065322;28;20192;-90
2023/09/20 10:05:01;;;;;;;4.20;1.70;;;;;;;35.05;27.28;99082.69;5073703;28;20185;-90
2023/09/20 10:07:40;;;;;;;2.55;1.20;;;;;;;35.14;27.73;99080.44;5055718;28;20192;-90
2023/09/20 10:10:13;;;;;;;2.80;1.35;;;;;;;35.44;27.18;99075.59;5056311;28;20297;-90
2023/09/20 10:12:44;;;;;;;5.28;1.70;;;;;;;35.73;26.52;99077.28;5073716;28;20282;-90
2023/09/20 10:15:14;;;;;;;4.00;1.90;;;;;;;35.74;26.92;99069.94;5074302;28;20164;-90
2023/09/20 10:17:59;;;;;;;2.58;1.50;;;;;;;35.92;26.48;99077.91;5056089;28;20185;-90
2023/09/20 10:21:18;;;;;;;2.75;1.42;;;;;;;36.06;25.99;99062.91;5056441;28;20268;-90
2023/09/20 10:23:47;;;;;;;2.45;1.23;;;;;;;36.03;26.20;99068.03;5058074;28;20189;-89
2023/09/20 10:26:18;;;;;;;7.47;2.00;;;;;;;36.14;26.58;99058.97;5073352;28;20626;-90
2023/09/20 10:28:45;;;;;;;9.70;4.13;;;;;;;36.24;26.47;99059.13;5073596;28;20263;-90
2023/09/20 10:31:16;;;;;;;6.43;2.15;;;;;;;36.17;25.90;99053.00;5055923;28;20670;-90
2023/09/20 10:33:56;;;;;;;2.63;1.55;;;;;;;36.10;25.56;99052.34;5056203;28;20185;-90
2023/09/20 10:36:28;;;;;;;3.95;1.35;;;;;;;35.98;25.66;99046.91;5073664;28;20153;-88
2023/09/20 10:39:22;;;;;;;2.15;1.13;;;;;;;35.91;25.92;99048.97;5073726;28;20623;-90
2023/09/20 10:41:51;;;;;;;4.10;1.45;;;;;;;36.17;24.94;99047.53;5073855;28;20185;-89
2023/09/20 10:44:38;;;;;;;4.03;1.38;;;;;;;36.25;25.95;99050.69;5073934;28;20661;-90
2023/09/20 10:47:17;;;;;;;5.50;1.50;;;;;;;36.39;25.43;99043.00;5073770;28;20590;-90
2023/09/20 10:49:55;;;;;;;4.18;1.65;;;;;;;36.57;25.41;99056.41;5073155;28;20200;-90
2023/09/20 10:52:38;;;;;;;6.95;1.45;;;;;;;36.80;24.70;99052.63;5073381;28;20191;-91
2023/09/20 10:55:20;;;;;;;3.80;1.08;;;;;;;36.79;25.34;99046.34;5073918;28;20161;-89
2023/09/20 10:57:50;;;;;;;1.85;1.00;;;;;;;36.94;23.97;99046.59;5073348;28;20649;-89
2023/09/20 11:00:30;;;;;;;4.68;1.27;;;;;;;36.89;24.65;99040.22;5073338;28;20173;-90
2023/09/20 11:02:56;;;;;;;3.90;1.13;;;;;;;37.13;24.30;99038.09;5073561;28;20161;-90
2023/09/20 11:05:28;;;;;;;8.27;1.60;;;;;;;37.07;24.49;99033.63;5073202;28;20189;-90
2023/09/20 11:07:55;;;;;;;5.53;1.23;;;;;;;37.03;24.51;99036.03;5073144;28;20184;-88
2023/09/20 11:10:23;;;;;;;4.38;1.27;;;;;;;36.54;25.24;99024.13;5073135;28;20708;-90
2023/09/20 11:12:50;;;;;;;2.08;0.98;;;;;;;36.77;25.60;99032.09;5073428;28;20185;-90
2023/09/20 11:15:17;;;;;;;4.25;1.50;;;;;;;36.73;24.62;99030.16;5072995;28;20223;-90
2023/09/20 11:17:42;;;;;;;4.90;1.50;;;;;;;36.98;24.40;99025.03;5055168;28;20208;-89
2023/09/20 11:20:11;;;;;;;2.85;1.40;;;;;;;36.81;24.88;99030.53;5055735;28;20212;-90
2023/09/20 11:22:38;;;;;;;4.13;1.20;;;;;;;36.91;25.33;99022.47;5073368;28;20185;-90
2023/09/20 11:25:04;;;;;;;4.20;1.25;;;;;;;37.13;25.16;99027.16;5072892;28;20224;-89
2023/09/20 11:27:36;;;;;;;3.65;1.08;;;;;;;37.27;24.39;99020.19;5073013;28;20234;-90
2023/09/20 11:30:10;;;;;;;6.15;1.58;;;;;;;37.01;24.29;99012.78;5072748;28;20185;-90
2023/09/20 11:32:39;;;;;;;4.72;1.40;;;;;;;37.14;23.77;99013.22;5073290;28;20227;-89
2023/09/20 11:35:07;;;;;;;7.70;1.55;;;;;;;37.37;24.23;99009.41;5072913;28;20188;-90
2023/09/20 11:37:38;;;;;;;4.13;1.80;;;;;;;37.53;24.54;98998.38;5057737;28;20186;-90
2023/09/20 11:40:08;;;;;;;6.70;1.70;;;;;;;37.62;23.73;99006.97;5035416;28;20165;-91
2023/09/20 11:42:38;;;;;;;3.05;1.40;;;;;;;37.68;23.97;98994.16;5035629;28;20509;-90
2023/09/20 11:45:08;;;;;;;6.50;1.90;;;;;;;37.71;23.91;98991.72;5069914;28;20686;-90
2023/09/20 11:47:41;;;;;;;4.18;1.63;;;;;;;37.90;22.94;98986.72;5072892;28;20181;-90
2023/09/20 11:50:15;;;;;;;4.82;1.02;;;;;;;37.93;23.04;98986.19;5072532;28;20200;-90
2023/09/20 11:52:47;;;;;;;5.50;1.48;;;;;;;37.98;23.20;98989.81;5073101;28;20344;-90
2023/09/20 11:55:14;;;;;;;3.67;1.77;;;;;;;37.84;23.57;98976.81;5072727;28;20173;-91
2023/09/20 11:57:47;;;;;;;4.50;1.45;;;;;;;37.19;24.39;98977.75;5072704;28;20645;-90
2023/09/20 12:00:25;;;;;;;5.75;1.88;;;;;;;37.28;23.34;98972.66;5072583;28;20204;-89
2023/09/20 12:02:55;;;;;;;7.05;1.35;;;;;;;37.38;24.29;98979.06;5055010;28;20200;-89
2023/09/20 12:05:21;;;;;;;3.35;1.20;;;;;;;37.51;24.24;98980.56;5073029;28;20687;-89
2023/09/20 12:07:59;;;;;;;8.38;1.52;;;;;;;37.30;23.91;98974.03;5072646;28;20179;-89
2023/09/20 12:10:28;;;;;;;3.45;1.25;;;;;;;37.44;24.30;98971.75;5054758;28;20581;-89
2023/09/20 12:12:55;;;;;;;2.95;1.17;;;;;;;37.38;24.21;98967.28;5072346;28;20180;-89
2023/09/20 12:15:23;;;;;;;4.78;1.20;;;;;;;37.41;23.43;98967.63;5072811;28;20212;-88
2023/09/20 12:17:51;;;;;;;3.63;1.20;;;;;;;37.42;23.76;98963.00;5055006;28;20188;-89
2023/09/20 12:20:18;;;;;;;5.32;1.52;;;;;;;37.65;23.12;98956.38;5072987;28;20271;-89
2023/09/20 12:22:44;;;;;;;2.72;1.10;;;;;;;37.37;24.33;98954.72;5072683;28;20177;-89